MDT,Max TemperatureF,Mean TemperatureF,Min TemperatureF,Max Dew PointF,MeanDew PointF,Min DewpointF,Max Humidity, Mean Humidity, Min Humidity, Max Sea Level PressureIn, Mean Sea Level PressureIn, Min Sea Level PressureIn, Max VisibilityMiles, Mean VisibilityMiles, Min VisibilityMiles, Max Wind SpeedMPH, Mean Wind SpeedMPH, Max Gust SpeedMPH,PrecipitationIn, CloudCover, Events, WindDirDegrees
2012-10-1,70,53,35,50,40,30,83,56,29,30.16,30.10,29.97,10,10,8,29,14,35,T,1,Rain,334
2012-10-2,81,57,33,41,35,28,76,47,18,30.12,29.92,29.78,10,10,10,18,11,24,0.00,0,,207
2012-10-3,90,67,43,42,33,21,77,43,9,30.14,29.81,29.68,10,10,7,37,13,46,0.00,0,,262
2012-10-4,56,44,31,29,25,20,70,49,27,30.36,30.29,30.16,10,10,10,25,11,33,0.00,1,,23
2012-10-5,37,34,30,34,31,22,100,82,64,30.41,30.33,30.20,10,7,0,21,7,24,0.08,7,Fog-Snow,94
2012-10-6,36,34,32,33,31,30,96,89,82,30.43,30.35,30.30,10,6,1,16,6,21,0.16,8,Snow,97
2012-10-7,55,41,27,37,31,22,96,64,32,30.37,30.21,30.07,10,10,8,17,7,35,0.00,6,,218
2012-10-8,73,55,37,32,23,10,76,43,9,30.08,29.91,29.77,10,10,10,20,10,23,0.00,0,,223
2012-10-9,57,44,30,38,32,27,86,64,41,30.27,30.04,29.74,10,10,10,24,12,31,0.00,2,,348
2012-10-10,65,47,28,37,32,25,92,62,31,30.27,30.13,29.95,10,10,10,28,13,37,0.00,0,,199
2012-10-11,65,51,36,41,35,27,92,62,31,30.28,30.07,29.89,10,10,10,22,11,29,0.00,0,,23
2012-10-12,58,45,31,46,32,24,93,70,47,30.29,30.12,29.85,10,10,10,30,13,36,T,4,,147
2012-10-13,73,56,39,49,44,36,93,61,28,29.95,29.81,29.64,10,8,0,32,13,39,0.09,3,Fog-Rain-Thunderstorm,283
2012-10-14,73,59,44,41,35,30,76,48,20,30.16,30.09,29.92,10,10,10,25,14,31,0.00,0,,300
2012-10-15,79,63,46,38,34,29,65,41,16,30.05,29.88,29.72,10,10,10,14,9,20,0.00,0,,217
2012-10-16,78,61,43,38,33,30,62,40,18,29.83,29.63,29.42,10,10,10,37,9,45,0.00,0,,267
2012-10-17,63,46,29,38,22,12,65,41,17,29.95,29.76,29.49,10,10,10,38,20,46,0.00,1,,327
2012-10-18,59,47,35,19,10,1,52,32,11,30.06,30.00,29.94,10,8,2,47,24,61,0.00,3,,322
2012-10-19,73,54,35,24,18,11,44,29,13,30.04,29.90,29.76,10,10,10,20,12,25,0.00,0,,273
2012-10-20,84,64,43,31,22,15,49,29,8,29.79,29.67,29.58,10,10,10,17,12,23,0.00,0,,224
2012-10-21,73,57,40,34,30,25,70,46,22,29.81,29.69,29.56,10,10,10,23,12,28,0.00,0,,340
2012-10-22,64,50,36,49,42,32,100,78,56,29.96,29.86,29.73,10,6,0,21,10,25,0.00,4,Fog,352
2012-10-23,86,63,40,48,35,17,100,54,8,29.74,29.68,29.58,10,6,0,28,9,38,0.00,1,Fog,216
2012-10-24,53,43,32,48,43,33,100,86,71,29.93,29.81,29.67,10,5,0,33,14,40,0.08,8,Fog-Rain-Snow,17
2012-10-25,45,37,28,30,27,22,92,67,41,30.41,30.19,29.96,10,8,2,29,14,39,T,5,Snow,1
2012-10-26,40,31,22,25,23,19,92,71,50,30.57,30.46,30.34,10,10,10,13,5,16,T,5,,61
2012-10-27,51,36,20,27,24,20,92,64,36,30.35,30.24,30.14,10,10,9,22,9,26,0.00,2,,192
2012-10-28,64,50,36,28,24,19,70,45,20,30.21,30.09,29.98,10,10,10,26,12,33,0.00,5,,217
2012-10-29,75,55,35,30,28,26,64,41,17,30.11,30.03,29.97,10,10,10,15,8,21,0.00,0,,251
2012-10-30,75,58,41,36,32,28,65,43,20,30.06,30.01,29.94,10,10,10,20,11,24,0.00,0,,305
2012-10-31,76,57,38,33,29,26,62,39,16,30.08,30.03,29.96,10,10,10,17,8,22,0.00,0,,293